Time;durP1;ratioP1;P1;durP2;ratioP2;P2;SDS_P1;SDS_P2;PMS_P1;PMS_P2;Temp;Humidity;BMP_temperature;BMP_pressure;BME280_temperature;BME280_humidity;BME280_pressure;Samples;Min_cycle;Max_cycle;Signal;HPM_P1;HPM_P2
2021/11/16 00:01:23;;;;;;;36.17;19.15;;;7.60;99.90;;;;;;5037930;28;20108;-62
2021/11/16 00:03:49;;;;;;;36.63;18.48;;;7.60;99.90;;;;;;5036802;28;20025;-62
2021/11/16 00:06:15;;;;;;;35.72;17.92;;;7.60;99.90;;;;;;5032895;28;20403;-64
2021/11/16 00:08:41;;;;;;;33.45;18.75;;;7.70;99.90;;;;;;5031251;28;20017;-63
2021/11/16 00:11:07;;;;;;;32.63;17.95;;;7.70;99.90;;;;;;5034849;28;20029;-64
2021/11/16 00:13:32;;;;;;;36.60;18.25;;;7.70;99.90;;;;;;5032629;28;20446;-63
2021/11/16 00:15:58;;;;;;;31.52;18.02;;;7.70;99.90;;;;;;5030105;28;20063;-62
2021/11/16 00:18:27;;;;;;;41.22;20.55;;;7.60;99.90;;;;;;5030891;28;20036;-62
2021/11/16 00:20:53;;;;;;;36.00;18.13;;;7.60;99.90;;;;;;5031052;28;20104;-62
2021/11/16 00:23:21;;;;;;;38.83;19.67;;;7.60;99.90;;;;;;5031151;28;20542;-63
2021/11/16 00:25:50;;;;;;;34.17;17.35;;;7.60;99.90;;;;;;5031438;28;20472;-63
2021/11/16 00:28:16;;;;;;;34.47;18.23;;;7.70;99.90;;;;;;5032119;28;20439;-62
2021/11/16 00:30:42;;;;;;;33.42;17.15;;;7.70;99.90;;;;;;5038718;28;20038;-63
2021/11/16 00:33:08;;;;;;;32.05;17.73;;;7.70;99.90;;;;;;5031499;28;20052;-63
2021/11/16 00:35:38;;;;;;;36.17;19.42;;;7.70;99.90;;;;;;5041763;28;20025;-63
2021/11/16 00:38:08;;;;;;;31.98;18.33;;;7.60;99.90;;;;;;5040506;28;20025;-61
2021/11/16 00:40:36;;;;;;;35.17;18.55;;;7.50;99.90;;;;;;5028714;28;20017;-62
2021/11/16 00:43:04;;;;;;;42.15;21.15;;;7.40;99.90;;;;;;5033212;28;20491;-62
2021/11/16 00:45:30;;;;;;;36.08;20.25;;;7.40;99.90;;;;;;5039710;28;20025;-61
2021/11/16 00:47:56;;;;;;;38.35;21.30;;;7.30;99.90;;;;;;5027654;28;20119;-63
2021/11/16 00:50:22;;;;;;;37.38;19.90;;;7.40;99.90;;;;;;5035994;28;20083;-63
2021/11/16 00:52:49;;;;;;;40.58;21.30;;;7.40;99.90;;;;;;5035710;28;20025;-61
2021/11/16 00:55:16;;;;;;;46.00;20.52;;;7.40;99.90;;;;;;5037957;28;20067;-63
2021/11/16 00:57:42;;;;;;;39.85;20.45;;;7.40;99.90;;;;;;5045640;28;20032;-63
2021/11/16 01:00:10;;;;;;;43.67;21.02;;;7.40;99.90;;;;;;5032825;28;20112;-63
2021/11/16 01:02:36;;;;;;;45.47;21.38;;;7.40;99.90;;;;;;5038264;28;20517;-60
2021/11/16 01:05:02;;;;;;;41.83;20.00;;;7.40;99.90;;;;;;5035352;28;20033;-63
2021/11/16 01:07:28;;;;;;;43.83;21.70;;;7.40;99.90;;;;;;5013511;28;20022;-60
2021/11/16 01:09:54;;;;;;;40.50;20.55;;;7.30;99.90;;;;;;5035256;28;20038;-61
2021/11/16 01:12:21;;;;;;;38.80;20.48;;;7.40;99.90;;;;;;5023472;28;20034;-64
2021/11/16 01:14:46;;;;;;;38.17;20.73;;;7.40;99.90;;;;;;5034548;28;20100;-63
2021/11/16 01:17:13;;;;;;;38.55;19.45;;;7.40;99.90;;;;;;5039149;28;20104;-63
2021/11/16 01:19:39;;;;;;;38.33;19.42;;;7.40;99.90;;;;;;5036211;28;20404;-63
2021/11/16 01:22:06;;;;;;;39.92;19.60;;;7.40;99.90;;;;;;5038195;28;20033;-63
2021/11/16 01:24:32;;;;;;;35.80;17.88;;;7.50;99.90;;;;;;5032571;28;20057;-63
2021/11/16 01:26:57;;;;;;;36.05;19.85;;;7.50;99.90;;;;;;5044457;28;20468;-63
2021/11/16 01:29:24;;;;;;;34.97;18.88;;;7.50;99.90;;;;;;5034175;28;20396;-63
2021/11/16 01:31:52;;;;;;;40.63;19.20;;;7.50;99.90;;;;;;5034582;28;20025;-64
2021/11/16 01:34:24;;;;;;;38.85;18.92;;;7.50;99.90;;;;;;5029378;28;20480;-63
2021/11/16 01:36:50;;;;;;;32.03;19.30;;;7.40;99.90;;;;;;5014869;28;20033;-64
2021/11/16 01:39:16;;;;;;;33.17;18.08;;;7.40;99.90;;;;;;5036235;28;20082;-64
2021/11/16 01:41:42;;;;;;;37.85;19.50;;;7.40;99.90;;;;;;5034411;28;20447;-63
2021/11/16 01:44:07;;;;;;;38.70;18.85;;;7.40;99.90;;;;;;5035797;28;20484;-64
2021/11/16 01:46:33;;;;;;;37.20;19.70;;;7.40;99.90;;;;;;5033895;28;20403;-64
2021/11/16 01:48:59;;;;;;;38.13;19.45;;;7.40;99.90;;;;;;5033868;28;20033;-64
2021/11/16 01:51:28;;;;;;;38.85;20.48;;;7.40;99.90;;;;;;5033127;28;20490;-62
2021/11/16 01:54:01;;;;;;;35.83;19.38;;;7.40;99.90;;;;;;5036302;28;20028;-63
2021/11/16 01:56:36;;;;;;;39.45;19.88;;;7.40;99.90;;;;;;5033782;28;20052;-61
2021/11/16 01:59:03;;;;;;;35.53;18.48;;;7.50;99.90;;;;;;5038763;28;20036;-63
2021/11/16 02:01:30;;;;;;;41.22;19.67;;;7.50;99.90;;;;;;5036164;28;20032;-63
2021/11/16 02:03:56;;;;;;;36.78;19.70;;;7.50;99.90;;;;;;5034122;28;20068;-63
2021/11/16 02:06:23;;;;;;;39.42;19.77;;;7.50;99.90;;;;;;5034266;28;20044;-63
2021/11/16 02:08:53;;;;;;;34.97;19.38;;;7.50;99.90;;;;;;5036448;28;20021;-63
2021/11/16 02:11:19;;;;;;;38.33;20.30;;;7.40;99.90;;;;;;5040296;28;20395;-62
2021/11/16 02:13:45;;;;;;;38.00;18.77;;;7.40;99.90;;;;;;5031337;28;20033;-64
2021/11/16 02:16:11;;;;;;;41.70;19.70;;;7.40;99.90;;;;;;5035024;28;20037;-64
2021/11/16 02:18:38;;;;;;;44.85;21.60;;;7.30;99.90;;;;;;5033986;28;20105;-63
2021/11/16 02:21:04;;;;;;;38.47;18.80;;;7.30;99.90;;;;;;5037172;28;20105;-63
2021/11/16 02:23:31;;;;;;;40.72;19.65;;;7.30;99.90;;;;;;5016212;28;20034;-63
2021/11/16 02:25:57;;;;;;;38.22;19.88;;;7.30;99.90;;;;;;5033362;28;20030;-63
2021/11/16 02:28:23;;;;;;;39.20;20.08;;;7.40;99.90;;;;;;5042704;28;20048;-63
2021/11/16 02:30:50;;;;;;;43.28;20.23;;;7.40;99.90;;;;;;5038413;28;20022;-63
2021/11/16 02:33:16;;;;;;;35.75;17.67;;;7.40;99.90;;;;;;5038317;28;20033;-64
2021/11/16 02:35:43;;;;;;;39.70;19.30;;;7.50;99.90;;;;;;5032250;28;20068;-62
2021/11/16 02:38:10;;;;;;;40.95;20.60;;;7.50;99.90;;;;;;5030843;28;20029;-63
2021/11/16 02:40:36;;;;;;;44.00;20.48;;;7.40;99.90;;;;;;5039083;28;20471;-64
2021/11/16 02:43:03;;;;;;;43.15;20.48;;;7.30;99.90;;;;;;5033848;28;20116;-63
2021/11/16 02:45:29;;;;;;;45.08;21.27;;;7.40;99.90;;;;;;5035270;28;20033;-64
2021/11/16 02:47:55;;;;;;;41.40;19.42;;;7.30;99.90;;;;;;5037934;28;20501;-64
2021/11/16 02:50:21;;;;;;;41.95;20.38;;;7.40;99.90;;;;;;5036585;28;20074;-65
2021/11/16 02:52:48;;;;;;;45.80;21.42;;;7.30;99.90;;;;;;5032960;28;20029;-64
2021/11/16 02:55:15;;;;;;;42.45;20.10;;;7.40;99.90;;;;;;5038213;28;20396;-64
2021/11/16 02:57:41;;;;;;;41.40;20.48;;;7.40;99.90;;;;;;5041171;28;20056;-64
2021/11/16 03:00:12;;;;;;;39.17;19.98;;;7.30;99.90;;;;;;5033308;28;20471;-64
2021/11/16 03:02:41;;;;;;;42.70;19.92;;;7.30;99.90;;;;;;5032827;28;20033;-64
2021/11/16 03:05:07;;;;;;;42.20;21.42;;;7.30;99.90;;;;;;5035893;28;20025;-63
2021/11/16 03:07:46;;;;;;;40.20;19.35;;;7.30;99.90;;;;;;5029890;28;20029;-63
2021/11/16 03:10:12;;;;;;;45.95;20.00;;;7.30;99.90;;;;;;5036509;28;20060;-63
2021/11/16 03:12:39;;;;;;;36.90;18.80;;;7.20;99.90;;;;;;5032980;28;20022;-62
2021/11/16 03:15:05;;;;;;;43.40;21.27;;;7.20;99.90;;;;;;5017365;28;20025;-61
2021/11/16 03:17:31;;;;;;;36.65;18.95;;;7.30;99.90;;;;;;5034924;28;20090;-62
2021/11/16 03:19:57;;;;;;;46.45;20.45;;;7.20;99.90;;;;;;5040674;28;20025;-63
2021/11/16 03:22:27;;;;;;;39.92;18.92;;;7.20;99.90;;;;;;5030776;28;20377;-58
2021/11/16 03:24:57;;;;;;;41.72;19.40;;;7.20;99.90;;;;;;5032709;28;20053;-64
2021/11/16 03:27:29;;;;;;;40.13;18.33;;;7.20;99.90;;;;;;5029800;28;20052;-64
2021/11/16 03:29:58;;;;;;;30.17;17.65;;;7.30;99.90;;;;;;5028331;28;20029;-63
2021/11/16 03:32:30;;;;;;;39.00;17.52;;;7.30;99.90;;;;;;5031273;28;20112;-60
2021/11/16 03:34:57;;;;;;;44.10;18.17;;;7.30;99.90;;;;;;5028702;28;20036;-63
2021/11/16 03:37:25;;;;;;;37.40;17.67;;;7.40;99.90;;;;;;5028351;28;20369;-64
2021/11/16 03:39:52;;;;;;;40.33;17.95;;;7.30;99.90;;;;;;5030280;28;20024;-60
2021/11/16 03:42:18;;;;;;;35.92;17.05;;;7.30;99.90;;;;;;5029736;28;20061;-64
2021/11/16 03:44:44;;;;;;;40.15;17.88;;;7.20;99.90;;;;;;5029605;28;20439;-64
2021/11/16 03:47:10;;;;;;;38.55;17.77;;;7.20;99.90;;;;;;5030512;28;20049;-64
2021/11/16 03:49:37;;;;;;;39.72;17.10;;;7.20;99.90;;;;;;5030034;28;20034;-65
2021/11/16 03:52:03;;;;;;;39.22;16.90;;;7.10;99.90;;;;;;5028572;28;20025;-64
2021/11/16 03:54:29;;;;;;;42.60;18.45;;;7.20;99.90;;;;;;5029778;28;20033;-63
2021/11/16 03:57:00;;;;;;;36.55;17.52;;;7.20;99.90;;;;;;5031962;28;20104;-63
2021/11/16 03:59:28;;;;;;;47.13;20.35;;;7.20;99.90;;;;;;5030551;28;20116;-64
2021/11/16 04:01:54;;;;;;;39.88;17.73;;;7.10;99.90;;;;;;5030690;28;20032;-63
2021/11/16 04:04:20;;;;;;;42.03;18.42;;;7.20;99.90;;;;;;5032642;28;20281;-63
2021/11/16 04:06:46;;;;;;;43.25;19.48;;;7.20;99.90;;;;;;5032304;28;20078;-62
2021/11/16 04:09:11;;;;;;;43.28;19.70;;;7.20;99.90;;;;;;5030751;28;20052;-64
2021/11/16 04:11:37;;;;;;;38.75;17.55;;;7.20;99.90;;;;;;5030406;28;20025;-64
2021/11/16 04:14:03;;;;;;;44.13;19.33;;;7.10;99.90;;;;;;5030655;28;20140;-64
2021/11/16 04:16:28;;;;;;;45.78;18.70;;;7.10;99.90;;;;;;5030984;28;20057;-63
2021/11/16 04:18:54;;;;;;;41.00;17.35;;;7.10;99.90;;;;;;5030022;28;20033;-64
2021/11/16 04:21:20;;;;;;;43.90;18.25;;;7.10;99.90;;;;;;5025417;28;20071;-64
2021/11/16 04:23:46;;;;;;;47.92;19.08;;;7.10;99.90;;;;;;5030356;28;20049;-63
2021/11/16 04:26:11;;;;;;;44.55;18.50;;;7.10;99.90;;;;;;5030036;28;20025;-65
2021/11/16 04:28:38;;;;;;;43.50;19.17;;;7.10;99.90;;;;;;5030271;28;20422;-63
2021/11/16 04:31:03;;;;;;;47.60;18.15;;;7.10;99.90;;;;;;5030545;28;20032;-64
2021/11/16 04:33:29;;;;;;;35.35;17.83;;;7.10;99.90;;;;;;5029116;28;20038;-64
2021/11/16 04:35:55;;;;;;;44.35;19.23;;;7.10;99.90;;;;;;5030396;28;20036;-64
2021/11/16 04:38:21;;;;;;;39.13;17.45;;;7.10;99.90;;;;;;5057140;22;20049;-62
2021/11/16 04:40:51;;;;;;;42.92;18.00;;;7.10;99.90;;;;;;5049039;28;20021;-63
2021/11/16 04:43:20;;;;;;;38.85;17.27;;;7.10;99.90;;;;;;5051323;28;20037;-62
2021/11/16 04:45:52;;;;;;;40.97;18.08;;;7.00;99.90;;;;;;5052934;28;20028;-61
2021/11/16 04:48:32;;;;;;;39.83;18.25;;;7.00;99.90;;;;;;5053603;28;20037;-62
2021/11/16 05:04:32;;;;;;;34.05;15.95;;;7.10;99.90;;;;;;5049977;28;20028;-62
2021/11/16 05:06:58;;;;;;;36.88;17.33;;;7.20;99.90;;;;;;5055455;28;20045;-61
2021/11/16 05:09:24;;;;;;;39.40;15.63;;;7.30;99.90;;;;;;5052249;28;20439;-62
2021/11/16 05:11:49;;;;;;;36.30;16.08;;;7.30;99.90;;;;;;5052533;28;20098;-61
2021/11/16 05:14:15;;;;;;;37.28;16.35;;;7.30;99.90;;;;;;5052175;28;20043;-61
2021/11/16 05:16:41;;;;;;;32.40;15.00;;;7.30;99.90;;;;;;5053370;28;20103;-62
2021/11/16 05:19:07;;;;;;;32.90;15.20;;;7.30;99.90;;;;;;5051645;28;20494;-61
2021/11/16 05:21:32;;;;;;;33.20;15.65;;;7.30;99.90;;;;;;5051314;28;20076;-62
2021/11/16 05:24:00;;;;;;;31.85;14.45;;;7.30;99.90;;;;;;5051677;28;20077;-62
2021/11/16 05:26:27;;;;;;;39.30;15.07;;;7.30;99.90;;;;;;5053016;28;20399;-62
2021/11/16 05:28:54;;;;;;;32.05;14.30;;;7.20;99.90;;;;;;5051843;28;20025;-62
2021/11/16 05:31:21;;;;;;;33.33;15.30;;;7.20;99.90;;;;;;5055912;28;20081;-62
2021/11/16 05:33:48;;;;;;;31.02;14.43;;;7.10;99.90;;;;;;5052551;28;20020;-63
2021/11/16 05:36:17;;;;;;;42.13;16.15;;;7.10;99.90;;;;;;5049883;28;20025;-61
2021/11/16 05:38:46;;;;;;;39.03;17.63;;;7.00;99.90;;;;;;5051635;28;20037;-61
2021/11/16 05:41:13;;;;;;;38.08;16.13;;;7.00;99.90;;;;;;5053196;28;20025;-61
2021/11/16 05:43:39;;;;;;;39.83;16.95;;;7.00;99.90;;;;;;5053643;28;20072;-61
2021/11/16 05:46:04;;;;;;;42.17;17.33;;;7.00;99.90;;;;;;5052393;28;20040;-63
2021/11/16 05:48:35;;;;;;;41.97;18.20;;;7.00;99.90;;;;;;5050825;28;20032;-61
2021/11/16 05:51:01;;;;;;;39.03;16.63;;;7.00;99.90;;;;;;5052196;28;20033;-62
2021/11/16 05:53:27;;;;;;;43.88;19.00;;;7.00;99.90;;;;;;5050240;28;20036;-62
2021/11/16 05:55:52;;;;;;;46.15;18.50;;;7.00;99.90;;;;;;5053629;28;20029;-62
2021/11/16 05:58:19;;;;;;;37.67;16.70;;;7.00;99.90;;;;;;5048909;28;20021;-62
2021/11/16 06:00:46;;;;;;;40.25;17.95;;;7.00;99.90;;;;;;5048460;28;20025;-62
2021/11/16 06:03:11;;;;;;;39.33;18.17;;;7.00;99.90;;;;;;5052930;28;20020;-62
2021/11/16 06:05:37;;;;;;;40.15;17.75;;;7.00;99.90;;;;;;5050460;28;20031;-62
2021/11/16 06:08:04;;;;;;;43.42;18.70;;;7.00;99.90;;;;;;5050446;28;20037;-61
2021/11/16 06:10:30;;;;;;;38.60;17.17;;;7.10;99.90;;;;;;5050880;28;20040;-62
2021/11/16 06:12:56;;;;;;;44.72;18.60;;;7.10;99.90;;;;;;5053863;28;20025;-61
2021/11/16 06:15:22;;;;;;;42.20;17.10;;;7.20;99.90;;;;;;5050275;28;20087;-61
2021/11/16 06:17:47;;;;;;;40.47;18.10;;;7.10;99.90;;;;;;5050586;28;20025;-63
2021/11/16 06:20:18;;;;;;;46.85;19.00;;;7.10;99.90;;;;;;5052927;28;20023;-61
2021/11/16 06:22:45;;;;;;;40.65;17.05;;;7.20;99.90;;;;;;5059118;28;20021;-61
2021/11/16 06:25:10;;;;;;;42.40;18.88;;;7.20;99.90;;;;;;5048405;28;20498;-62
2021/11/16 06:27:36;;;;;;;42.17;20.38;;;7.20;99.90;;;;;;5049828;28;20043;-62
2021/11/16 06:30:02;;;;;;;47.33;20.73;;;7.20;99.90;;;;;;5050575;28;20037;-62
2021/11/16 06:32:28;;;;;;;42.72;19.23;;;7.20;99.90;;;;;;5050860;28;20036;-62
2021/11/16 06:34:53;;;;;;;46.88;20.58;;;7.10;99.90;;;;;;5050426;28;20446;-62
2021/11/16 06:37:19;;;;;;;46.15;20.65;;;7.20;99.90;;;;;;5051048;28;20056;-63
2021/11/16 06:39:45;;;;;;;42.30;18.77;;;7.20;99.90;;;;;;5051544;28;20032;-62
2021/11/16 06:42:13;;;;;;;49.97;20.67;;;7.20;99.90;;;;;;5054640;28;20033;-62
2021/11/16 06:44:39;;;;;;;45.30;20.17;;;7.20;99.90;;;;;;5050071;28;20558;-63
2021/11/16 06:47:05;;;;;;;50.03;21.15;;;7.20;99.90;;;;;;5050950;28;20029;-63
2021/11/16 06:49:32;;;;;;;48.03;22.60;;;7.20;99.90;;;;;;5051151;28;20029;-62
2021/11/16 06:51:57;;;;;;;50.88;21.90;;;7.20;99.90;;;;;;5050918;28;20749;-63
2021/11/16 06:54:25;;;;;;;45.35;22.08;;;7.20;99.90;;;;;;5050814;28;20033;-63
2021/11/16 06:56:52;;;;;;;51.88;22.45;;;7.20;99.90;;;;;;5054786;28;20117;-62
2021/11/16 06:59:20;;;;;;;49.72;22.52;;;7.20;99.90;;;;;;5049248;28;20017;-62
2021/11/16 07:01:46;;;;;;;55.13;23.52;;;7.20;99.90;;;;;;5051960;28;20575;-62
2021/11/16 07:04:12;;;;;;;54.40;24.02;;;7.10;99.90;;;;;;5051183;28;20028;-61
2021/11/16 07:06:46;;;;;;;46.90;23.38;;;7.10;99.90;;;;;;5049921;28;20505;-61
2021/11/16 07:09:14;;;;;;;49.78;23.23;;;7.10;99.90;;;;;;5043612;28;20024;-61
2021/11/16 07:11:45;;;;;;;52.40;22.65;;;7.10;99.90;;;;;;5048473;28;20029;-62
2021/11/16 07:14:13;;;;;;;57.53;24.15;;;7.20;99.90;;;;;;5044401;28;20090;-63
2021/11/16 07:16:56;;;;;;;48.42;22.23;;;7.20;99.90;;;;;;5044595;28;20095;-62
2021/11/16 07:19:38;;;;;;;56.45;25.40;;;7.20;99.90;;;;;;5051800;28;20032;-62
2021/11/16 07:22:08;;;;;;;54.30;24.80;;;7.20;99.90;;;;;;5054605;28;20078;-61
2021/11/16 07:24:44;;;;;;;63.03;25.23;;;7.20;99.90;;;;;;5050765;28;20501;-61
2021/11/16 07:27:10;;;;;;;64.13;25.05;;;7.20;99.90;;;;;;5049373;28;20055;-62
2021/11/16 07:29:42;;;;;;;61.00;27.17;;;7.10;99.90;;;;;;5048413;28;20036;-62
2021/11/16 07:32:26;;;;;;;63.67;26.50;;;7.10;99.90;;;;;;5059222;28;20024;-61
2021/11/16 07:35:02;;;;;;;63.33;27.40;;;7.00;99.90;;;;;;5050071;28;20151;-62
2021/11/16 07:37:30;;;;;;;61.50;26.27;;;7.00;99.90;;;;;;5049171;28;20032;-62
2021/11/16 07:40:01;;;;;;;55.58;26.63;;;7.00;99.90;;;;;;5049441;28;20525;-61
2021/11/16 07:42:31;;;;;;;59.03;28.23;;;7.00;99.90;;;;;;5053874;28;20483;-63
2021/11/16 07:45:19;;;;;;;56.75;27.38;;;7.00;99.90;;;;;;5048809;28;20021;-62
2021/11/16 07:47:56;;;;;;;65.32;27.30;;;7.00;99.90;;;;;;5044107;28;20021;-62
2021/11/16 07:50:31;;;;;;;63.03;28.33;;;7.00;99.90;;;;;;5047676;28;20040;-62
2021/11/16 07:53:15;;;;;;;65.15;27.13;;;7.00;99.90;;;;;;5047970;28;20147;-62
2021/11/16 07:55:43;;;;;;;64.00;28.23;;;6.90;99.90;;;;;;5048155;28;20519;-64
2021/11/16 07:58:11;;;;;;;62.28;27.35;;;7.00;99.90;;;;;;5043728;28;20078;-61
2021/11/16 08:00:40;;;;;;;66.68;28.00;;;6.90;99.90;;;;;;5050775;28;20025;-61
2021/11/16 08:03:19;;;;;;;61.92;27.33;;;6.80;99.90;;;;;;5048921;28;20043;-61
2021/11/16 08:11:11;;;;;;;62.80;27.67;;;6.80;99.90;;;;;;5047986;28;20029;-62
2021/11/16 08:13:36;;;;;;;71.00;28.58;;;6.70;99.90;;;;;;5047805;28;20025;-62
2021/11/16 08:16:10;;;;;;;65.82;27.67;;;6.70;99.90;;;;;;5053211;28;20402;-62
2021/11/16 08:18:43;;;;;;;38.55;18.30;;;6.80;99.90;;;;;;5044260;28;20082;-62
2021/11/16 08:21:09;;;;;;;64.88;27.38;;;6.90;99.90;;;;;;5051213;28;20028;-62
2021/11/16 08:23:35;;;;;;;59.28;27.13;;;6.80;99.90;;;;;;5049831;28;20086;-62
2021/11/16 08:26:00;;;;;;;60.97;26.73;;;6.80;99.90;;;;;;5048615;28;20041;-62
2021/11/16 08:28:26;;;;;;;62.58;26.75;;;6.80;99.90;;;;;;5047634;28;20028;-62
2021/11/16 08:30:53;;;;;;;70.22;26.80;;;6.80;99.90;;;;;;5048142;28;20021;-62
2021/11/16 08:33:19;;;;;;;68.90;27.05;;;6.70;99.90;;;;;;5044940;28;20056;-62
2021/11/16 08:35:48;;;;;;;61.58;23.75;;;6.70;99.90;;;;;;5048166;28;20021;-62
2021/11/16 08:38:14;;;;;;;56.40;24.75;;;6.80;99.90;;;;;;5048229;28;20032;-62
2021/11/16 08:40:45;;;;;;;51.90;22.95;;;6.90;99.90;;;;;;5048904;28;20029;-63
2021/11/16 08:43:15;;;;;;;65.13;26.10;;;6.90;99.90;;;;;;5047605;28;20104;-62
2021/11/16 08:45:46;;;;;;;57.05;25.35;;;6.90;99.90;;;;;;5053550;28;20184;-63
2021/11/16 08:48:18;;;;;;;67.45;26.85;;;6.90;99.90;;;;;;5049255;28;20070;-63
2021/11/16 08:50:55;;;;;;;53.53;24.25;;;6.90;99.90;;;;;;5048401;28;20941;-63
2021/11/16 08:53:29;;;;;;;54.80;23.20;;;6.90;99.90;;;;;;5048785;28;20039;-62
2021/11/16 08:55:55;;;;;;;61.88;23.45;;;6.90;99.90;;;;;;5042761;28;20632;-63
2021/11/16 08:58:25;;;;;;;56.60;24.98;;;6.90;99.90;;;;;;5048409;28;20036;-62
2021/11/16 09:00:58;;;;;;;57.20;25.60;;;6.80;99.90;;;;;;5050150;28;20021;-63
2021/11/16 09:03:29;;;;;;;62.33;25.40;;;6.80;99.90;;;;;;5051187;28;20036;-62
2021/11/16 09:05:57;;;;;;;60.90;24.23;;;6.80;99.90;;;;;;5043502;28;20487;-63
2021/11/16 09:08:27;;;;;;;59.42;23.98;;;6.90;99.90;;;;;;5047924;28;20689;-61
2021/11/16 09:10:59;;;;;;;51.80;23.63;;;6.90;99.90;;;;;;5048687;28;20025;-62
2021/11/16 09:13:30;;;;;;;56.85;25.17;;;6.90;99.90;;;;;;5046961;28;20029;-63
2021/11/16 09:16:03;;;;;;;57.10;23.88;;;6.80;99.90;;;;;;5047001;28;20057;-63
2021/11/16 09:18:36;;;;;;;53.83;22.40;;;6.90;99.90;;;;;;5047440;28;20021;-63
2021/11/16 09:21:08;;;;;;;58.45;23.75;;;7.00;99.90;;;;;;5046715;28;20063;-62
2021/11/16 09:24:06;;;;;;;59.00;25.50;;;7.00;99.90;;;;;;5047676;28;20024;-63
2021/11/16 09:29:05;;;;;;;56.28;25.17;;;7.10;99.90;;;;;;5051720;28;20036;-62
2021/11/16 09:31:35;;;;;;;61.53;25.27;;;7.10;99.90;;;;;;5053961;28;20661;-62
2021/11/16 09:34:04;;;;;;;60.78;26.27;;;7.10;99.90;;;;;;5055857;28;20423;-63
2021/11/16 09:36:41;;;;;;;61.13;25.08;;;7.10;99.90;;;;;;5051526;28;20017;-62
2021/11/16 09:39:12;;;;;;;59.83;26.67;;;7.10;99.90;;;;;;5052472;28;20056;-61
2021/11/16 09:41:50;;;;;;;59.25;25.27;;;7.10;99.90;;;;;;5052697;28;20101;-63
2021/11/16 09:44:24;;;;;;;58.15;24.95;;;7.10;99.90;;;;;;5047758;28;20021;-62
2021/11/16 09:47:01;;;;;;;62.72;26.15;;;7.20;99.90;;;;;;5051276;28;20052;-62
2021/11/16 09:49:41;;;;;;;57.47;24.10;;;7.20;99.90;;;;;;5051375;28;20028;-63
2021/11/16 09:52:08;;;;;;;54.03;24.95;;;7.30;99.90;;;;;;5050984;28;20453;-63
2021/11/16 09:54:53;;;;;;;52.90;24.63;;;7.20;99.90;;;;;;5051486;28;20029;-62
2021/11/16 09:57:24;;;;;;;57.47;24.60;;;7.20;99.90;;;;;;5051669;28;20036;-63
2021/11/16 09:59:50;;;;;;;52.83;25.80;;;7.20;99.90;;;;;;5050210;28;20033;-62
2021/11/16 10:02:34;;;;;;;63.65;26.23;;;7.20;99.90;;;;;;5049272;28;20515;-62
2021/11/16 10:05:16;;;;;;;62.35;27.38;;;7.20;99.90;;;;;;5050506;28;20021;-62
2021/11/16 10:07:42;;;;;;;67.93;28.73;;;7.20;99.90;;;;;;5051026;28;20029;-63
2021/11/16 10:10:08;;;;;;;59.28;25.58;;;7.10;99.90;;;;;;5051041;28;20020;-62
2021/11/16 10:12:44;;;;;;;69.40;26.20;;;7.00;99.90;;;;;;5051952;28;20032;-62
2021/11/16 10:15:15;;;;;;;57.95;24.25;;;7.00;99.90;;;;;;5060319;28;20032;-62
2021/11/16 10:17:45;;;;;;;51.15;23.10;;;7.00;99.90;;;;;;5050631;28;20419;-63
2021/11/16 10:20:13;;;;;;;49.88;20.75;;;7.10;99.90;;;;;;5050983;28;20017;-62
2021/11/16 10:22:45;;;;;;;45.25;20.27;;;7.10;99.90;;;;;;5059112;28;20036;-63
2021/11/16 10:25:24;;;;;;;43.60;18.98;;;7.20;99.90;;;;;;5049251;28;20408;-61
2021/11/16 10:27:53;;;;;;;38.65;17.83;;;7.10;99.90;;;;;;5050217;28;20132;-63
2021/11/16 10:30:38;;;;;;;37.72;17.83;;;7.20;99.90;;;;;;5050769;28;20162;-62
2021/11/16 10:33:15;;;;;;;42.40;18.90;;;7.20;99.90;;;;;;5050039;28;21320;-63
2021/11/16 10:35:47;;;;;;;43.30;19.58;;;7.10;99.90;;;;;;5048042;28;20108;-63
2021/11/16 10:38:15;;;;;;;42.25;19.25;;;7.10;99.90;;;;;;5068213;22;20045;-64
2021/11/16 10:40:42;;;;;;;39.75;17.38;;;7.10;99.90;;;;;;5038457;28;20091;-64
2021/11/16 10:43:09;;;;;;;47.38;19.83;;;7.20;99.90;;;;;;5045687;28;20100;-65
2021/11/16 10:45:39;;;;;;;43.50;18.70;;;7.10;99.90;;;;;;5044760;28;20016;-64
2021/11/16 10:48:09;;;;;;;38.33;18.85;;;7.20;99.90;;;;;;5021483;28;20027;-64
2021/11/16 10:50:36;;;;;;;42.75;18.60;;;7.20;99.90;;;;;;5046020;28;20725;-65
2021/11/16 10:53:06;;;;;;;42.53;20.35;;;7.20;99.90;;;;;;5036758;28;20037;-65
2021/11/16 10:55:50;;;;;;;40.45;18.48;;;7.10;99.90;;;;;;5037179;28;20035;-65
2021/11/16 10:58:20;;;;;;;42.20;19.23;;;7.10;99.90;;;;;;5040758;28;20017;-64
2021/11/16 11:00:53;;;;;;;42.72;18.73;;;7.20;99.90;;;;;;5039477;28;20017;-65
2021/11/16 11:03:28;;;;;;;36.78;18.20;;;7.20;99.90;;;;;;5038069;28;20112;-65
2021/11/16 11:06:00;;;;;;;37.63;19.10;;;7.20;99.90;;;;;;5039632;28;20372;-66
2021/11/16 11:08:57;;;;;;;40.55;18.00;;;7.20;99.90;;;;;;5032130;28;20080;-65
2021/11/16 11:11:32;;;;;;;36.60;17.67;;;7.20;99.90;;;;;;5041668;28;20036;-64
2021/11/16 11:14:03;;;;;;;38.05;17.27;;;7.30;99.90;;;;;;5043665;28;20025;-65
2021/11/16 11:16:30;;;;;;;41.40;16.42;;;7.30;99.90;;;;;;5029302;28;20510;-65
2021/11/16 11:18:56;;;;;;;35.97;17.70;;;7.30;99.90;;;;;;5056989;28;20073;-65
2021/11/16 11:21:27;;;;;;;40.17;17.63;;;7.30;99.90;;;;;;5044530;28;20032;-65
2021/11/16 11:23:56;;;;;;;36.30;17.08;;;7.30;99.90;;;;;;5049612;28;20376;-66
2021/11/16 11:29:14;;;;;;;34.30;14.40;;;7.30;99.90;;;;;;5040265;28;20040;-65
2021/11/16 11:31:44;;;;;;;29.73;14.00;;;7.30;99.90;;;;;;5039286;28;20542;-66
2021/11/16 11:34:11;;;;;;;30.08;12.90;;;7.30;99.90;;;;;;5047549;28;20431;-65
2021/11/16 11:36:38;;;;;;;32.22;13.57;;;7.40;99.90;;;;;;5033399;28;20029;-65
2021/11/16 11:39:15;;;;;;;28.52;12.30;;;7.40;99.90;;;;;;5039700;28;20029;-64
2021/11/16 11:41:49;;;;;;;29.88;12.88;;;7.40;99.90;;;;;;5043801;28;20021;-65
2021/11/16 11:44:18;;;;;;;30.48;13.15;;;7.30;99.90;;;;;;5042741;28;20029;-66
2021/11/16 11:46:53;;;;;;;22.50;11.15;;;7.30;99.90;;;;;;5032592;28;20029;-66
2021/11/16 11:49:20;;;;;;;23.13;11.73;;;7.30;99.90;;;;;;5038903;28;20525;-65
2021/11/16 11:51:46;;;;;;;25.05;12.30;;;7.30;99.90;;;;;;5037591;28;20032;-65
2021/11/16 11:54:13;;;;;;;22.73;10.25;;;7.30;99.90;;;;;;5043509;28;20029;-66
2021/11/16 11:56:39;;;;;;;21.35;10.68;;;7.30;99.90;;;;;;5041970;28;20033;-65
2021/11/16 11:59:05;;;;;;;21.58;11.10;;;7.30;99.90;;;;;;5037817;28;20167;-65
2021/11/16 12:01:31;;;;;;;27.13;10.93;;;7.20;99.90;;;;;;5051877;28;20029;-66
2021/11/16 12:03:59;;;;;;;21.08;10.27;;;7.20;99.90;;;;;;5038923;28;20029;-65
2021/11/16 12:06:25;;;;;;;22.83;10.50;;;7.20;99.90;;;;;;5045508;28;20395;-64
2021/11/16 12:08:52;;;;;;;19.05;9.77;;;7.20;99.90;;;;;;5026261;28;20121;-62
2021/11/16 12:11:19;;;;;;;21.02;10.88;;;7.20;99.90;;;;;;5044731;28;20056;-64
2021/11/16 12:13:46;;;;;;;21.25;11.48;;;7.30;99.90;;;;;;5043830;28;21514;-64
2021/11/16 12:16:21;;;;;;;23.73;10.93;;;7.30;99.90;;;;;;5043669;28;20041;-63
2021/11/16 12:19:01;;;;;;;27.23;12.77;;;7.30;99.90;;;;;;5043454;28;20017;-63
2021/11/16 12:21:40;;;;;;;22.40;11.57;;;7.20;99.90;;;;;;5044945;28;20700;-64
2021/11/16 12:24:10;;;;;;;24.35;11.45;;;7.20;99.90;;;;;;5043385;28;21173;-64
2021/11/16 12:26:41;;;;;;;26.27;11.75;;;7.20;99.90;;;;;;5044276;28;20155;-62
2021/11/16 12:29:19;;;;;;;21.45;10.55;;;7.20;99.90;;;;;;5043560;28;20576;-61
2021/11/16 12:31:46;;;;;;;30.67;13.07;;;7.20;99.90;;;;;;5044863;28;20025;-63
2021/11/16 12:34:49;;;;;;;25.08;12.02;;;7.20;99.90;;;;;;5044475;28;20074;-66
2021/11/16 12:37:43;;;;;;;25.35;10.93;;;7.20;99.90;;;;;;4973362;28;20553;-64
2021/11/16 12:40:25;;;;;;;20.70;10.23;;;7.20;99.90;;;;;;5041696;28;20179;-64
2021/11/16 12:43:08;;;;;;;20.52;10.25;;;7.20;99.90;;;;;;5043365;28;20411;-63
2021/11/16 12:45:46;;;;;;;21.10;11.73;;;7.20;99.90;;;;;;5042359;28;20175;-62
2021/11/16 12:48:15;;;;;;;21.75;10.68;;;7.10;99.90;;;;;;5043629;28;20402;-62
2021/11/16 12:51:11;;;;;;;23.05;10.90;;;7.20;99.90;;;;;;5026100;28;20029;-64
2021/11/16 12:54:09;;;;;;;25.30;11.60;;;7.10;99.90;;;;;;5009054;28;20992;-62
2021/11/16 12:56:41;;;;;;;21.27;9.98;;;7.20;99.90;;;;;;5031474;28;20072;-65
2021/11/16 12:59:09;;;;;;;19.73;11.32;;;7.20;99.90;;;;;;5044125;28;20025;-65
2021/11/16 13:01:44;;;;;;;23.38;11.02;;;7.10;99.90;;;;;;5024927;28;20021;-65
2021/11/16 13:04:12;;;;;;;22.92;9.77;;;7.10;99.90;;;;;;5046831;28;20141;-65
2021/11/16 13:06:40;;;;;;;22.02;10.75;;;7.20;99.90;;;;;;5048950;28;20304;-64
2021/11/16 13:09:11;;;;;;;21.38;9.35;;;7.20;99.90;;;;;;5039839;28;20100;-65
2021/11/16 13:11:39;;;;;;;18.15;10.82;;;7.20;99.90;;;;;;5051134;28;20021;-65
2021/11/16 13:14:05;;;;;;;17.92;9.70;;;7.20;99.90;;;;;;5034421;28;20040;-65